createdAt,value
2022-09-29T00:00:18.121Z,1000.113867
2022-09-29T00:05:17.855Z,1000.097593
2022-09-29T00:10:18.079Z,1000.136539
2022-09-29T00:15:18.165Z,1000.172054
2022-09-29T00:20:18.309Z,1000.154057
2022-09-29T00:25:18.093Z,1000.215793
2022-09-29T00:30:18.090Z,1000.274731
2022-09-29T00:35:17.895Z,1000.317207
2022-09-29T00:40:18.023Z,1000.350541
2022-09-29T00:45:17.917Z,1000.354308
2022-09-29T00:50:18.218Z,1000.398571
2022-09-29T00:55:18.158Z,1000.376115
2022-09-29T01:00:18.197Z,1000.375534
2022-09-29T01:05:17.861Z,1000.422700
2022-09-29T01:10:17.912Z,1000.415746
2022-09-29T01:15:17.923Z,1000.412772
2022-09-29T01:20:17.861Z,1000.417852
2022-09-29T01:25:17.876Z,1000.464525
2022-09-29T01:30:18.122Z,1000.508159
2022-09-29T01:35:18.072Z,1000.526415
2022-09-29T01:40:18.061Z,1000.529797
2022-09-29T01:45:18.139Z,1000.508106
2022-09-29T01:50:18.084Z,1000.517497
2022-09-29T01:55:18.574Z,1000.566255
2022-09-29T02:00:18.109Z,1000.584402
2022-09-29T02:05:18.018Z,1000.598079
2022-09-29T02:10:17.954Z,1000.618699
2022-09-29T02:15:18.238Z,1000.653679
2022-09-29T02:20:18.204Z,1000.624162
2022-09-29T02:25:18.291Z,1000.675867
2022-09-29T02:30:18.066Z,1000.685516
2022-09-29T02:35:17.892Z,1000.695346
2022-09-29T02:40:18.789Z,1000.723009
2022-09-29T02:45:18.032Z,1000.703877
2022-09-29T02:50:18.214Z,1000.741266
2022-09-29T02:55:18.079Z,1000.768523
2022-09-29T03:00:18.051Z,1000.777753
2022-09-29T03:05:18.046Z,1000.780331
2022-09-29T03:10:17.972Z,1000.760852
2022-09-29T03:15:18.030Z,1000.734911
2022-09-29T03:20:18.286Z,1000.695481
2022-09-29T03:25:17.882Z,1000.652589
2022-09-29T03:30:17.802Z,1000.586231
2022-09-29T03:35:18.179Z,1000.656959
2022-09-29T03:40:17.967Z,1000.735056
2022-09-29T03:45:18.073Z,1000.788549
2022-09-29T03:50:18.004Z,1000.808514
2022-09-29T03:55:18.034Z,1000.849609
2022-09-29T04:00:18.134Z,1000.930365
2022-09-29T04:05:18.066Z,1000.977882
2022-09-29T04:10:17.812Z,1000.912790
2022-09-29T04:15:18.271Z,1000.937499
2022-09-29T04:20:18.048Z,1000.984735
2022-09-29T04:25:18.835Z,1001.029479
2022-09-29T04:30:17.906Z,1001.071177
2022-09-29T04:35:17.769Z,1001.084382
2022-09-29T04:40:17.989Z,1001.107737
2022-09-29T04:45:17.996Z,1001.126740
2022-09-29T04:50:18.058Z,1001.136352
2022-09-29T04:55:18.124Z,1001.165232
2022-09-29T05:00:18.038Z,1001.202824
2022-09-29T05:05:17.771Z,1001.217349
2022-09-29T05:10:17.831Z,1001.215764
2022-09-29T05:15:20.964Z,1001.247271
2022-09-29T05:20:18.025Z,1001.318171
2022-09-29T05:25:17.764Z,1001.306250
2022-09-29T05:30:18.120Z,1001.338364
2022-09-29T05:35:17.934Z,1001.337727
2022-09-29T05:40:18.037Z,1001.325569
2022-09-29T05:45:18.032Z,1001.329970
2022-09-29T05:50:18.159Z,1001.303804
2022-09-29T05:55:18.282Z,1001.235550
2022-09-29T06:00:17.930Z,1001.296448
2022-09-29T06:05:17.819Z,1001.293373
2022-09-29T06:10:17.779Z,1001.269055
2022-09-29T06:15:18.240Z,1001.311928
2022-09-29T06:20:17.735Z,1001.325165
2022-09-29T06:25:18.237Z,1001.324690
2022-09-29T06:30:17.774Z,1001.379840
2022-09-29T06:35:18.032Z,1001.366505
2022-09-29T06:40:18.149Z,1001.331221
2022-09-29T06:45:22.053Z,1001.324358
2022-09-29T06:50:17.861Z,1001.319062
2022-09-29T06:55:17.974Z,1001.275762
2022-09-29T07:00:17.874Z,1001.211561
2022-09-29T07:05:17.767Z,1001.210285
2022-09-29T07:10:17.789Z,1001.195041
2022-09-29T07:15:17.802Z,1001.278644
2022-09-29T07:20:17.724Z,1001.281253
2022-09-29T07:25:33.918Z,1001.227433
2022-09-29T07:30:18.368Z,1001.198157
2022-09-29T07:35:17.756Z,1001.199190
2022-09-29T07:40:17.792Z,1001.205562
2022-09-29T07:45:17.765Z,1001.272772
2022-09-29T07:50:17.727Z,1001.246472
2022-09-29T07:55:17.939Z,1001.233511
2022-09-29T08:00:17.920Z,1001.254338
2022-09-29T08:05:18.141Z,1001.241655
2022-09-29T08:10:18.066Z,1001.255507
2022-09-29T08:15:17.814Z,1001.282482
2022-09-29T08:20:17.775Z,1001.289377
2022-09-29T08:25:17.668Z,1001.367125
2022-09-29T08:30:18.121Z,1001.488040
2022-09-29T08:35:18.172Z,1001.531757
2022-09-29T08:40:17.914Z,1001.553025
2022-09-29T08:45:17.875Z,1001.538341
2022-09-29T08:50:17.754Z,1001.543390
2022-09-29T08:55:21.552Z,1001.586480
2022-09-29T09:00:17.986Z,1001.610517
2022-09-29T09:05:17.749Z,1001.630457
2022-09-29T09:10:17.808Z,1001.657155
2022-09-29T09:15:17.900Z,1001.697381
2022-09-29T09:20:18.016Z,1001.706220
2022-09-29T09:25:17.953Z,1001.723143
2022-09-29T09:30:17.722Z,1001.724144
2022-09-29T09:35:23.482Z,1001.712444
2022-09-29T09:40:17.784Z,1001.732568
2022-09-29T09:45:17.715Z,1001.729568
2022-09-29T09:50:18.012Z,1001.744149
2022-09-29T09:55:18.122Z,1001.774950
2022-09-29T10:00:18.031Z,1001.809041
2022-09-29T10:05:17.798Z,1001.797596
2022-09-29T10:10:17.985Z,1001.868613
2022-09-29T10:15:18.693Z,1001.915171
2022-09-29T10:20:18.189Z,1001.913303
2022-09-29T10:25:18.145Z,1001.827694
2022-09-29T10:30:17.912Z,1001.808430
2022-09-29T10:35:17.897Z,1001.819570
2022-09-29T10:40:17.754Z,1001.882875
2022-09-29T10:45:17.636Z,1001.942492
2022-09-29T10:50:17.856Z,1002.032590
2022-09-29T10:55:17.981Z,1001.984787
2022-09-29T11:00:17.856Z,1002.001313
2022-09-29T11:05:17.777Z,1002.060636
2022-09-29T11:10:17.735Z,1002.131781
2022-09-29T11:15:17.812Z,1002.082182
2022-09-29T11:20:17.767Z,1002.117905
2022-09-29T11:25:17.768Z,1002.113196
2022-09-29T11:30:17.826Z,1002.077524
2022-09-29T11:35:17.700Z,1002.098998
2022-09-29T11:40:17.780Z,1002.083372
2022-09-29T11:45:24.036Z,1002.032441
2022-09-29T11:50:17.788Z,1002.003910
2022-09-29T11:55:18.000Z,1002.014924
2022-09-29T12:00:18.208Z,1002.021476
2022-09-29T12:05:18.026Z,1001.951670
2022-09-29T12:10:20.282Z,1001.954091
2022-09-29T12:15:18.044Z,1001.970292
2022-09-29T12:20:17.724Z,1002.019525
2022-09-29T12:25:17.721Z,1002.005110
2022-09-29T12:30:17.920Z,1001.969561
2022-09-29T12:35:17.912Z,1001.944582
2022-09-29T12:40:17.989Z,1001.946653
2022-09-29T12:45:17.760Z,1001.960946
2022-09-29T12:50:17.695Z,1002.048644
2022-09-29T12:55:17.896Z,1002.079870
2022-09-29T13:00:18.005Z,1002.105960
2022-09-29T13:05:17.646Z,1002.146019
2022-09-29T13:10:17.812Z,1002.180297
2022-09-29T13:15:17.666Z,1002.169263
2022-09-29T13:20:17.793Z,1002.192107
2022-09-29T13:25:17.687Z,1002.228002
2022-09-29T13:30:17.754Z,1002.214822
2022-09-29T13:35:17.732Z,1002.242995
2022-09-29T13:40:17.820Z,1002.240705
2022-09-29T13:45:17.724Z,1002.116783
2022-09-29T13:50:17.758Z,1002.074229
2022-09-29T13:55:17.891Z,1002.007937
2022-09-29T14:00:17.946Z,1002.056061
2022-09-29T14:05:17.648Z,1002.144707
2022-09-29T14:10:18.020Z,1002.135579
2022-09-29T14:15:18.055Z,1002.104163
2022-09-29T14:20:18.298Z,1002.047623
2022-09-29T14:25:17.723Z,1002.135119
2022-09-29T14:30:17.575Z,1002.157382
2022-09-29T14:35:17.648Z,1002.185311
2022-09-29T14:40:18.068Z,1002.224355
2022-09-29T14:45:17.713Z,1002.272205
2022-09-29T14:50:17.605Z,1002.347457
2022-09-29T14:55:17.895Z,1002.498493
2022-09-29T15:00:17.830Z,1002.607415
2022-09-29T15:05:17.584Z,1002.695213
2022-09-29T15:10:17.871Z,1002.707068
2022-09-29T15:15:17.609Z,1002.715796
2022-09-29T15:20:17.616Z,1002.722212
2022-09-29T15:25:17.921Z,1002.796145
2022-09-29T15:30:17.863Z,1002.899703
2022-09-29T15:35:17.674Z,1002.980469
2022-09-29T15:40:17.725Z,1003.043737
2022-09-29T15:45:17.734Z,1003.105733
2022-09-29T15:50:17.751Z,1003.166622
2022-09-29T15:55:17.966Z,1003.201326
2022-09-29T16:00:18.022Z,1003.301429
2022-09-29T16:05:17.764Z,1003.466241
2022-09-29T16:10:17.769Z,1003.587116
2022-09-29T16:15:17.785Z,1003.716634
2022-09-29T16:20:17.882Z,1003.831679
2022-09-29T16:25:17.633Z,1003.909477
2022-09-29T16:30:17.809Z,1003.997203
2022-09-29T16:35:17.943Z,1004.034644
2022-09-29T16:40:18.040Z,1004.127427
2022-09-29T16:45:17.717Z,1004.162779
2022-09-29T16:50:17.821Z,1004.171370
2022-09-29T16:55:18.218Z,1004.235135
2022-09-29T17:00:17.948Z,1004.251052
2022-09-29T17:05:17.696Z,1004.265918
2022-09-29T17:10:17.621Z,1004.397937
2022-09-29T17:15:17.547Z,1004.461278
2022-09-29T17:20:17.612Z,1004.491459
2022-09-29T17:25:17.622Z,1004.562895
2022-09-29T17:30:17.670Z,1004.632828
2022-09-29T17:35:17.756Z,1004.717192
2022-09-29T17:40:17.845Z,1004.759326
2022-09-29T17:45:17.635Z,1004.780656
2022-09-29T17:50:17.692Z,1004.744903
2022-09-29T17:55:18.012Z,1004.815625
2022-09-29T18:00:17.922Z,1004.837733
2022-09-29T18:05:17.533Z,1004.873069
2022-09-29T18:10:17.733Z,1004.892288
2022-09-29T18:15:18.498Z,1004.877288
2022-09-29T18:20:17.720Z,1004.839118
2022-09-29T18:25:17.912Z,1004.866899
2022-09-29T18:30:17.696Z,1004.848644
2022-09-29T18:35:17.633Z,1004.893174
2022-09-29T18:40:17.930Z,1004.923349
2022-09-29T18:45:17.794Z,1004.926769
2022-09-29T18:50:17.649Z,1004.950556
2022-09-29T18:55:17.787Z,1004.968500
2022-09-29T19:00:17.650Z,1005.005534
2022-09-29T19:05:17.611Z,1005.023400
2022-09-29T19:10:17.596Z,1005.057463
2022-09-29T19:15:17.558Z,1005.097645
2022-09-29T19:20:17.744Z,1005.215024
2022-09-29T19:25:17.659Z,1005.324630
2022-09-29T19:30:17.730Z,1005.377042
2022-09-29T19:35:17.529Z,1005.482881
2022-09-29T19:40:17.543Z,1005.485099
2022-09-29T19:45:17.507Z,1005.686320
2022-09-29T19:50:17.654Z,1005.738101
2022-09-29T19:55:17.646Z,1005.812068
2022-09-29T20:00:18.032Z,1005.921007
2022-09-29T20:05:17.771Z,1005.950517
2022-09-29T20:10:17.723Z,1005.989459
2022-09-29T20:15:17.537Z,1006.028712
2022-09-29T20:20:17.650Z,1006.055040
2022-09-29T20:25:17.557Z,1006.108482
2022-09-29T20:30:17.529Z,1006.175641
2022-09-29T20:35:17.558Z,1006.265099
2022-09-29T20:40:17.532Z,1006.268680
2022-09-29T20:45:17.641Z,1006.290214
2022-09-29T20:50:17.926Z,1006.345464
2022-09-29T20:55:17.735Z,1006.371365
2022-09-29T21:00:17.924Z,1006.377466
2022-09-29T21:05:18.102Z,1006.329594
2022-09-29T21:10:17.856Z,1006.383227
2022-09-29T21:15:17.778Z,1006.502835
2022-09-29T21:20:17.757Z,1006.631586
2022-09-29T21:25:17.494Z,1006.590391
2022-09-29T21:30:17.555Z,1006.589693
2022-09-29T21:35:17.529Z,1006.629757
2022-09-29T21:40:17.755Z,1006.622361
2022-09-29T21:45:17.657Z,1006.650240
2022-09-29T21:50:17.660Z,1006.730990
2022-09-29T21:55:18.106Z,1006.793663
2022-09-29T22:00:17.806Z,1006.752553
2022-09-29T22:05:18.050Z,1006.748870
2022-09-29T22:10:17.724Z,1006.714109
2022-09-29T22:15:17.773Z,1006.768314
2022-09-29T22:20:17.615Z,1006.805965
2022-09-29T22:25:17.643Z,1006.850518
2022-09-29T22:30:17.608Z,1006.875270
2022-09-29T22:35:17.508Z,1006.876233
2022-09-29T22:40:17.984Z,1006.929810
2022-09-29T22:45:17.763Z,1006.963511
2022-09-29T22:50:17.813Z,1007.033418
2022-09-29T22:55:18.459Z,1007.026776
2022-09-29T23:00:17.806Z,1007.099821
2022-09-29T23:05:18.611Z,1007.131220
2022-09-29T23:10:18.098Z,1007.132137
2022-09-29T23:15:17.583Z,1007.107836
2022-09-29T23:20:17.668Z,1007.076758
2022-09-29T23:25:17.679Z,1007.097152
2022-09-29T23:30:17.925Z,1007.058350
2022-09-29T23:35:17.778Z,1007.066572
2022-09-29T23:40:17.548Z,1007.105295
2022-09-29T23:45:17.487Z,1007.145915
2022-09-29T23:50:17.499Z,1007.159529
2022-09-29T23:55:17.803Z,1007.196514
